METAR AND TAF INFORMATION
METAR FOR GCXO
ADDS - METARS form results

(1625 UTC 22 April 2018)
Data provider http://aviationweather.gov/adds/metars/
 
METAR text: GCXO 221609Z 31015G26KT 280V350 7000 2500NW RA PRFG FEW000 BKN003 14/13 Q1017 BECMG NSW
Conditions at: GCXO (TENERIFE/LOS ROD, ES) observed 1609 UTC 22 April 2018
Temperature: 14.0°C (57°F)
Dewpoint: 13.0°C (55°F) [RH = 94%]
Pressure (altimeter): 30.03 inches Hg (1017.0 mb)
Winds: from the NW (310 degrees) at 17 MPH (15 knots; 7.8 m/s)
gusting to 30 MPH (26 knots; 13.5 m/s)
Visibility: 4 miles (7 km)
Ceiling: 300 feet AGL
Clouds: few clouds at 0 feet AGL
broken clouds at 300 feet AGL
Weather: PRFG RA  (partial fog, rain)

METAR text: GCXO 221600Z 32018KT 280V350 9999 3500NW BKN002 BKN008 14/13 Q1017 NOSIG
Conditions at: GCXO (TENERIFE/LOS ROD, ES) observed 1600 UTC 22 April 2018
Temperature: 14.0°C (57°F)
Dewpoint: 13.0°C (55°F) [RH = 94%]
Pressure (altimeter): 30.03 inches Hg (1017.0 mb)
Winds: from the NW (320 degrees) at 21 MPH (18 knots; 9.4 m/s)
Visibility: 6 or more miles (10+ km)
Ceiling: 200 feet AGL
Clouds: broken clouds at 200 feet AGL
broken clouds at 800 feet AGL
Weather: no significant weather observed at this time

METAR text: GCXO 221530Z 31016G26KT 280V340 9999 3000NW BCFG FEW000 SCT002 BKN006 14/14 Q1017 NOSIG
Conditions at: GCXO (TENERIFE/LOS ROD, ES) observed 1530 UTC 22 April 2018
Temperature: 14.0°C (57°F)
Dewpoint: 14.0°C (57°F) [RH = 100%]
Pressure (altimeter): 30.03 inches Hg (1017.0 mb)
Winds: from the NW (310 degrees) at 18 MPH (16 knots; 8.3 m/s)
gusting to 30 MPH (26 knots; 13.5 m/s)
Visibility: 6 or more miles (10+ km)
Ceiling: 600 feet AGL
Clouds: few clouds at 0 feet AGL
scattered clouds at 200 feet AGL
broken clouds at 600 feet AGL
Weather: BCFG  (patches of fog)

Forecast for: GCXO (TENERIFE/LOS ROD, ES)
Text: TAF AMD GCXO 221456Z 2215/2315 30019KT 9999 BKN007 TX15/2314Z TN11/2306Z
Forecast period: 1500 UTC 22 April 2018 to 1500 UTC 23 April 2018
Forecast type: FROM: standard forecast or significant change
Winds: from the WNW (300 degrees) at 22 MPH (19 knots; 9.9 m/s)
Visibility: 6 or more miles (10+ km)
Ceiling: 700 feet AGL
Clouds: broken clouds at 700 feet AGL
Weather: no significant weather forecast for this period
Text: TEMPO 2215/2310 2500 RA BKN004
Forecast period: 1500 UTC 22 April 2018 to 1000 UTC 23 April 2018
Forecast type: TEMPORARY: The following changes expected for less than half the time period
Visibility: 1.55 miles (2.49 km)
Ceiling: 400 feet AGL
Clouds: broken clouds at 400 feet AGL
Weather: RA  (rain)
Text: PROB40
Forecast period: 1500 UTC 22 April 2018 to 0300 UTC 23 April 2018
Forecast type: TEMPORARY: The following changes expected for less than half the time period
Visibility: 0.75 miles (1.21 km)
Ceiling: 200 feet AGL
Clouds: broken clouds at 200 feet AGL
Weather: BCFG  (patches of fog)
Text: TEMPO 2215/2303 1200 BCFG BKN002
Forecast period: 2000 UTC 22 April 2018 to 0600 UTC 23 April 2018
Forecast type: TEMPORARY: The following changes expected for less than half the time period
Winds: from the WNW (300 degrees) at 21 MPH (18 knots; 9.4 m/s)
gusting to 34 MPH (30 knots; 15.6 m/s)
Weather: no significant weather forecast for this period

 AIRPORT MAP

 RUNWAY INFORMATION
Runway 12 Runway length 11155 ft Runway width 148 ft
Runway elevation 2060 ft Runway displaced threshold 0 ft Runway heading 111
Runway 30 Runway length 11155 ft Runway width 148 ft
Runway elevation 2002 ft Runway displaced threshold 0 ft Runway heading 291

 AIRPORT FREQUENCIES
Type APP Name APP Frequency 119.7 MHZ
Type ATIS Name ATIS Frequency 118.575 MHZ
Type GND Name GND Frequency 121.7 MHZ
Type TWR Name TWR Frequency 118.7 MHZ

 AIRPORT NEAR NAVIGATION AIDS
Type VOR-DME Name Tenerife Norte Frequency 117700 KHZ
Type NDB Name Tenerife Norte Frequency 410 KHZ



Powered by Virtual Airlines Manager [v2.6.2]